Time;durP1;ratioP1;P1;durP2;ratioP2;P2;SDS_P1;SDS_P2;PMS_P1;PMS_P2;Temp;Humidity;BMP_temperature;BMP_pressure;BME280_temperature;BME280_humidity;BME280_pressure;Samples;Min_cycle;Max_cycle;Signal;HPM_P1;HPM_P2
2023/03/16 00:02:24;;;;;;;;;;;;;;;;;;4436174;32;19944;-80
2023/03/16 00:04:50;;;;;;;;;;;;;;;;;;4434522;32;19948;-78
2023/03/16 00:07:15;;;;;;;;;;;;;;;;;;4436197;32;19947;-78
2023/03/16 00:09:40;;;;;;;;;;;;;;;;;;4436232;32;19937;-78
2023/03/16 00:12:05;;;;;;;;;;;;;;;;;;4436332;32;19960;-79
2023/03/16 00:14:30;;;;;;;;;;;;;;;;;;4436931;32;19945;-78
2023/03/16 00:16:55;;;;;;;;;;;;;;;;;;4439479;32;19994;-78
2023/03/16 00:19:23;;;;;;;;;;;;;;;;;;4446606;32;20305;-78
2023/03/16 00:21:48;;;;;;;;;;;;;;;;;;4441587;32;19945;-78
2023/03/16 00:24:17;;;;;;;;;;;;;;;;;;4439603;32;20302;-78
2023/03/16 00:26:42;;;;;;;;;;;;;;;;;;4436850;32;19929;-78
2023/03/16 00:29:07;;;;;;;;;;;;;;;;;;4438090;32;19985;-78
2023/03/16 00:31:33;;;;;;;;;;;;;;;;;;4438173;32;19933;-78
2023/03/16 00:33:58;;;;;;;;;;;;;;;;;;4436773;32;19978;-78
2023/03/16 00:36:23;;;;;;;;;;;;;;;;;;4436946;32;20293;-78
2023/03/16 00:38:48;;;;;;;;;;;;;;;;;;4436890;32;19977;-77
2023/03/16 00:41:14;;;;;;;;;;;;;;;;;;4438667;32;20019;-78
2023/03/16 00:43:43;;;;;;;;;;;;;;;;;;4437903;32;19997;-77
2023/03/16 00:46:08;;;;;;;;;;;;;;;;;;4437080;32;19959;-77
2023/03/16 00:48:33;;;;;;;;;;;;;;;;;;4436913;32;19993;-78
2023/03/16 00:50:58;;;;;;;;;;;;;;;;;;4443922;32;20078;-78
2023/03/16 00:53:24;;;;;;;;;;;;;;;;;;4449784;32;19960;-77
2023/03/16 00:55:49;;;;;;;;;;;;;;;;;;4448268;32;19932;-77
2023/03/16 00:58:14;;;;;;;;;;;;;;;;;;4446889;32;19951;-77
2023/03/16 01:00:39;;;;;;;;;;;;;;;;;;4439601;32;20000;-78
2023/03/16 01:03:04;;;;;;;;;;;;;;;;;;4440885;32;19956;-77
2023/03/16 01:05:32;;;;;;;;;;;;;;;;;;4439225;32;19989;-77
2023/03/16 01:07:58;;;;;;;;;;;;;;;;;;4438036;32;19967;-77
2023/03/16 01:10:23;;;;;;;;;;;;;;;;;;4436525;32;20057;-78
2023/03/16 01:12:49;;;;;;;;;;;;;;;;;;4436400;32;20327;-78
2023/03/16 01:15:14;;;;;;;;;;;;;;;;;;4436359;32;19937;-78
2023/03/16 01:17:40;;;;;;;;;;;;;;;;;;4436145;32;19947;-78
2023/03/16 01:20:10;;;;;;;;;;;;;;;;;;4437477;32;20328;-78
2023/03/16 01:22:35;;;;;;;;;;;;;;;;;;4437621;32;19966;-77
2023/03/16 01:25:00;;;;;;;;;;;;;;;;;;4435639;32;19941;-78
2023/03/16 01:27:26;;;;;;;;;;;;;;;;;;4437264;32;20289;-77
2023/03/16 01:29:51;;;;;;;;;;;;;;;;;;4436162;32;19933;-77
2023/03/16 01:32:16;;;;;;;;;;;;;;;;;;4436774;32;19936;-77
2023/03/16 01:34:41;;;;;;;;;;;;;;;;;;4437720;32;19977;-76
2023/03/16 01:37:06;;;;;;;;;;;;;;;;;;4439326;32;20215;-77
2023/03/16 01:39:32;;;;;;;;;;;;;;;;;;4438583;32;19982;-78
2023/03/16 01:41:57;;;;;;;;;;;;;;;;;;4438402;32;19941;-77
2023/03/16 01:44:23;;;;;;;;;;;;;;;;;;4438724;32;19932;-77
2023/03/16 01:46:48;;;;;;;;;;;;;;;;;;4438848;32;19966;-77
2023/03/16 01:49:13;;;;;;;;;;;;;;;;;;4437900;32;19932;-77
2023/03/16 01:51:41;;;;;;;;;;;;;;;;;;4436856;32;19972;-77
2023/03/16 01:54:06;;;;;;;;;;;;;;;;;;4437127;32;19937;-76
2023/03/16 01:56:33;;;;;;;;;;;;;;;;;;4435725;32;19956;-77
2023/03/16 01:58:58;;;;;;;;;;;;;;;;;;4435543;32;20340;-76
2023/03/16 02:01:23;;;;;;;;;;;;;;;;;;4435601;32;19956;-77
2023/03/16 02:03:48;;;;;;;;;;;;;;;;;;4437306;32;19932;-76
2023/03/16 02:06:14;;;;;;;;;;;;;;;;;;4435778;32;20002;-77
2023/03/16 02:08:39;;;;;;;;;;;;;;;;;;4435389;32;19986;-77
2023/03/16 02:11:04;;;;;;;;;;;;;;;;;;4435557;32;19936;-77
2023/03/16 02:16:18;;;;;;;;;;;;;;;;;;4437390;32;19953;-77
2023/03/16 02:18:43;;;;;;;;;;;;;;;;;;4435538;32;19944;-78
2023/03/16 02:21:08;;;;;;;;;;;;;;;;;;4435544;32;19953;-78
2023/03/16 02:23:33;;;;;;;;;;;;;;;;;;4435285;32;19944;-77
2023/03/16 02:25:58;;;;;;;;;;;;;;;;;;4435192;32;19950;-77
2023/03/16 02:28:23;;;;;;;;;;;;;;;;;;4435105;32;19933;-77
2023/03/16 02:30:48;;;;;;;;;;;;;;;;;;4435009;32;20313;-77
2023/03/16 02:33:13;;;;;;;;;;;;;;;;;;4435473;32;19992;-77
2023/03/16 02:35:39;;;;;;;;;;;;;;;;;;4435156;32;19974;-77
2023/03/16 02:38:04;;;;;;;;;;;;;;;;;;4434554;32;19932;-77
2023/03/16 02:40:29;;;;;;;;;;;;;;;;;;4435081;32;19941;-77
2023/03/16 02:42:54;;;;;;;;;;;;;;;;;;4435187;32;19952;-77
2023/03/16 02:45:19;;;;;;;;;;;;;;;;;;4436919;32;20005;-77
2023/03/16 02:47:44;;;;;;;;;;;;;;;;;;4435188;32;19977;-77
2023/03/16 02:50:09;;;;;;;;;;;;;;;;;;4435317;32;20013;-77
2023/03/16 02:52:34;;;;;;;;;;;;;;;;;;4434741;32;19950;-77
2023/03/16 02:55:00;;;;;;;;;;;;;;;;;;4436757;32;19976;-77
2023/03/16 02:57:25;;;;;;;;;;;;;;;;;;4435377;32;19985;-76
2023/03/16 02:59:50;;;;;;;;;;;;;;;;;;4439950;32;20298;-77
2023/03/16 03:02:15;;;;;;;;;;;;;;;;;;4437404;32;19991;-77
2023/03/16 03:04:41;;;;;;;;;;;;;;;;;;4437120;32;20343;-78
2023/03/16 03:07:06;;;;;;;;;;;;;;;;;;4436886;32;19929;-78
2023/03/16 03:09:31;;;;;;;;;;;;;;;;;;4435765;32;20272;-78
2023/03/16 03:11:56;;;;;;;;;;;;;;;;;;4435347;32;20338;-78
2023/03/16 03:14:22;;;;;;;;;;;;;;;;;;4435496;32;19974;-78
2023/03/16 03:16:47;;;;;;;;;;;;;;;;;;4435689;32;19948;-78
2023/03/16 03:19:12;;;;;;;;;;;;;;;;;;4435436;32;19941;-78
2023/03/16 03:21:37;;;;;;;;;;;;;;;;;;4435131;32;19937;-78
2023/03/16 03:24:02;;;;;;;;;;;;;;;;;;4435515;32;19963;-77
2023/03/16 03:26:28;;;;;;;;;;;;;;;;;;4435101;32;20347;-78
2023/03/16 03:28:53;;;;;;;;;;;;;;;;;;4435014;32;19979;-77
2023/03/16 03:31:18;;;;;;;;;;;;;;;;;;4436370;32;19937;-78
2023/03/16 03:33:43;;;;;;;;;;;;;;;;;;4436266;32;19969;-78
2023/03/16 03:36:08;;;;;;;;;;;;;;;;;;4435810;32;19972;-77
2023/03/16 03:38:33;;;;;;;;;;;;;;;;;;4449181;32;19944;-77
2023/03/16 03:40:59;;;;;;;;;;;;;;;;;;4449346;32;19941;-77
2023/03/16 03:43:24;;;;;;;;;;;;;;;;;;4448986;32;19925;-76
2023/03/16 03:45:50;;;;;;;;;;;;;;;;;;4444505;32;19972;-76
2023/03/16 03:48:15;;;;;;;;;;;;;;;;;;4445982;32;19937;-77
2023/03/16 03:50:40;;;;;;;;;;;;;;;;;;4444260;32;19933;-77
2023/03/16 03:53:05;;;;;;;;;;;;;;;;;;4447676;32;19933;-76
2023/03/16 03:55:30;;;;;;;;;;;;;;;;;;4445049;32;19949;-77
2023/03/16 03:57:55;;;;;;;;;;;;;;;;;;4443039;32;19952;-77
2023/03/16 04:00:21;;;;;;;;;;;;;;;;;;4445230;32;19936;-77
2023/03/16 04:02:46;;;;;;;;;;;;;;;;;;4443420;32;20039;-77
2023/03/16 04:05:11;;;;;;;;;;;;;;;;;;4441647;32;19941;-77
2023/03/16 04:07:36;;;;;;;;;;;;;;;;;;4439421;32;20299;-78
2023/03/16 04:10:01;;;;;;;;;;;;;;;;;;4439072;32;19937;-78
2023/03/16 04:12:26;;;;;;;;;;;;;;;;;;4437514;32;19950;-77
2023/03/16 04:14:52;;;;;;;;;;;;;;;;;;4437890;32;19936;-77
2023/03/16 04:17:17;;;;;;;;;;;;;;;;;;4437890;32;19941;-77
2023/03/16 04:19:42;;;;;;;;;;;;;;;;;;4437430;32;19953;-78
2023/03/16 04:22:07;;;;;;;;;;;;;;;;;;4438648;32;19937;-79
2023/03/16 04:24:33;;;;;;;;;;;;;;;;;;4437286;32;19992;-78
2023/03/16 04:26:58;;;;;;;;;;;;;;;;;;4437738;32;19943;-78
2023/03/16 04:29:24;;;;;;;;;;;;;;;;;;4436842;32;20261;-77
2023/03/16 04:34:33;;;;;;;;;;;;;;;;;;4439834;32;19927;-78
2023/03/16 04:36:58;;;;;;;;;;;;;;;;;;4438199;32;20020;-77
2023/03/16 04:39:23;;;;;;;;;;;;;;;;;;4439832;32;19955;-78
2023/03/16 04:41:48;;;;;;;;;;;;;;;;;;4439992;32;20330;-78
2023/03/16 04:44:14;;;;;;;;;;;;;;;;;;4437455;32;19952;-78
2023/03/16 04:49:23;;;;;;;;;;;;;;;;;;4438304;32;20273;-78
2023/03/16 04:54:32;;;;;;;;;;;;;;;;;;4436627;32;20007;-79
2023/03/16 04:56:58;;;;;;;;;;;;;;;;;;4436825;32;19937;-78
2023/03/16 04:59:23;;;;;;;;;;;;;;;;;;4436298;32;19937;-78
2023/03/16 05:01:48;;;;;;;;;;;;;;;;;;4437796;32;20006;-78
2023/03/16 05:04:13;;;;;;;;;;;;;;;;;;4437079;32;20303;-78
2023/03/16 05:06:38;;;;;;;;;;;;;;;;;;4441499;32;19940;-78
2023/03/16 05:09:07;;;;;;;;;;;;;;;;;;4441930;32;19943;-78
2023/03/16 05:11:32;;;;;;;;;;;;;;;;;;4438831;32;19928;-78
2023/03/16 05:13:57;;;;;;;;;;;;;;;;;;4437258;32;19985;-79
2023/03/16 05:16:22;;;;;;;;;;;;;;;;;;4437036;32;19936;-78
2023/03/16 05:18:47;;;;;;;;;;;;;;;;;;4438011;32;20287;-78
2023/03/16 05:23:56;;;;;;;;;;;;;;;;;;4438124;32;19953;-79
2023/03/16 05:26:21;;;;;;;;;;;;;;;;;;4436181;32;19933;-74
2023/03/16 05:28:46;;;;;;;;;;;;;;;;;;4437684;32;19941;-77
2023/03/16 05:31:12;;;;;;;;;;;;;;;;;;4436513;32;19973;-77
2023/03/16 05:33:37;;;;;;;;;;;;;;;;;;4437989;32;19933;-77
2023/03/16 05:36:02;;;;;;;;;;;;;;;;;;4436358;32;19933;-78
2023/03/16 05:38:27;;;;;;;;;;;;;;;;;;4437429;32;19933;-78
2023/03/16 05:40:53;;;;;;;;;;;;;;;;;;4436047;32;20313;-77
2023/03/16 05:43:19;;;;;;;;;;;;;;;;;;4436123;32;20365;-78
2023/03/16 05:45:44;;;;;;;;;;;;;;;;;;4437072;32;19941;-79
2023/03/16 05:48:09;;;;;;;;;;;;;;;;;;4435934;32;20318;-79
2023/03/16 05:50:34;;;;;;;;;;;;;;;;;;4437972;32;19937;-79
2023/03/16 05:52:59;;;;;;;;;;;;;;;;;;4437414;32;19995;-79
2023/03/16 05:55:24;;;;;;;;;;;;;;;;;;4435914;32;19937;-77
2023/03/16 05:57:50;;;;;;;;;;;;;;;;;;4436106;32;20005;-77
2023/03/16 06:00:15;;;;;;;;;;;;;;;;;;4436074;32;19988;-78
2023/03/16 06:02:40;;;;;;;;;;;;;;;;;;4435976;32;19944;-78
2023/03/16 06:05:06;;;;;;;;;;;;;;;;;;4435819;32;19937;-78
2023/03/16 06:07:31;;;;;;;;;;;;;;;;;;4437678;32;19941;-78
2023/03/16 06:12:40;;;;;;;;;;;;;;;;;;4436780;32;19932;-77
2023/03/16 06:15:06;;;;;;;;;;;;;;;;;;4436853;32;19952;-78
2023/03/16 06:17:31;;;;;;;;;;;;;;;;;;4435837;32;20312;-79
2023/03/16 06:19:56;;;;;;;;;;;;;;;;;;4437710;32;19937;-78
2023/03/16 06:25:06;;;;;;;;;;;;;;;;;;4438455;32;19927;-79
2023/03/16 06:27:31;;;;;;;;;;;;;;;;;;4439736;32;20237;-79
2023/03/16 06:29:56;;;;;;;;;;;;;;;;;;4439241;32;19936;-78
2023/03/16 06:32:21;;;;;;;;;;;;;;;;;;4441966;32;19952;-78
2023/03/16 06:34:46;;;;;;;;;;;;;;;;;;4438795;32;19936;-78
2023/03/16 06:37:12;;;;;;;;;;;;;;;;;;4437262;32;20272;-78
2023/03/16 06:39:37;;;;;;;;;;;;;;;;;;4435552;32;20246;-77
2023/03/16 06:42:03;;;;;;;;;;;;;;;;;;4435494;32;19970;-77
2023/03/16 06:44:28;;;;;;;;;;;;;;;;;;4436942;32;19933;-77
2023/03/16 06:46:54;;;;;;;;;;;;;;;;;;4436480;32;20291;-78
2023/03/16 06:49:19;;;;;;;;;;;;;;;;;;4436829;32;19984;-79
2023/03/16 06:51:45;;;;;;;;;;;;;;;;;;4438141;32;20305;-79
2023/03/16 06:54:10;;;;;;;;;;;;;;;;;;4438875;32;19976;-79
2023/03/16 06:56:35;;;;;;;;;;;;;;;;;;4436897;32;20005;-79
2023/03/16 06:59:00;;;;;;;;;;;;;;;;;;4435170;32;19940;-79
2023/03/16 07:01:25;;;;;;;;;;;;;;;;;;4436575;32;19947;-79
2023/03/16 07:03:51;;;;;;;;;;;;;;;;;;4436430;32;19956;-79
2023/03/16 07:06:16;;;;;;;;;;;;;;;;;;4434373;32;19937;-79
2023/03/16 07:08:41;;;;;;;;;;;;;;;;;;4435804;32;20383;-77
2023/03/16 07:11:06;;;;;;;;;;;;;;;;;;4436444;32;19941;-78
2023/03/16 07:13:31;;;;;;;;;;;;;;;;;;4436658;32;20277;-78
2023/03/16 07:15:56;;;;;;;;;;;;;;;;;;4436611;32;20333;-78
2023/03/16 07:18:21;;;;;;;;;;;;;;;;;;4438924;32;20269;-78
2023/03/16 07:20:47;;;;;;;;;;;;;;;;;;4437582;32;20352;-78
2023/03/16 07:23:12;;;;;;;;;;;;;;;;;;4436028;32;19997;-77
2023/03/16 07:25:37;;;;;;;;;;;;;;;;;;4438109;32;19966;-79
2023/03/16 07:28:02;;;;;;;;;;;;;;;;;;4438680;32;19940;-78
2023/03/16 07:30:27;;;;;;;;;;;;;;;;;;4439212;32;19933;-78
2023/03/16 07:32:52;;;;;;;;;;;;;;;;;;4441758;32;19943;-79
2023/03/16 07:35:17;;;;;;;;;;;;;;;;;;4446537;32;19970;-79
2023/03/16 07:37:42;;;;;;;;;;;;;;;;;;4447826;32;19933;-77
2023/03/16 07:40:08;;;;;;;;;;;;;;;;;;4450330;32;19973;-78
2023/03/16 07:42:34;;;;;;;;;;;;;;;;;;4447367;32;19947;-77
2023/03/16 07:45:00;;;;;;;;;;;;;;;;;;4446961;32;20022;-78
2023/03/16 07:47:25;;;;;;;;;;;;;;;;;;4440280;32;19937;-79
2023/03/16 07:49:50;;;;;;;;;;;;;;;;;;4439264;32;20358;-79
2023/03/16 07:52:15;;;;;;;;;;;;;;;;;;4439458;32;19971;-79
2023/03/16 07:54:40;;;;;;;;;;;;;;;;;;4439201;32;19937;-79
2023/03/16 07:57:05;;;;;;;;;;;;;;;;;;4439426;32;19941;-79
2023/03/16 07:59:31;;;;;;;;;;;;;;;;;;4439318;32;19941;-78
2023/03/16 08:01:56;;;;;;;;;;;;;;;;;;4439174;32;19947;-78
2023/03/16 08:04:21;;;;;;;;;;;;;;;;;;4439433;32;19988;-78
2023/03/16 08:06:46;;;;;;;;;;;;;;;;;;4439161;32;19933;-79
2023/03/16 08:09:11;;;;;;;;;;;;;;;;;;4438461;32;19944;-78
2023/03/16 08:11:36;;;;;;;;;;;;;;;;;;4437309;32;19979;-78
2023/03/16 08:14:03;;;;;;;;;;;;;;;;;;4439118;32;20286;-78
2023/03/16 08:16:28;;;;;;;;;;;;;;;;;;4437273;32;19970;-79
2023/03/16 08:18:53;;;;;;;;;;;;;;;;;;4437028;32;19936;-77
2023/03/16 08:21:19;;;;;;;;;;;;;;;;;;4437393;32;19966;-78
2023/03/16 08:23:48;;;;;;;;;;;;;;;;;;4437604;32;19936;-79
2023/03/16 08:26:13;;;;;;;;;;;;;;;;;;4437203;32;19929;-78
2023/03/16 08:28:38;;;;;;;;;;;;;;;;;;4436975;32;19952;-79
2023/03/16 08:31:03;;;;;;;;;;;;;;;;;;4437190;32;19948;-78
2023/03/16 08:33:28;;;;;;;;;;;;;;;;;;4437114;32;19947;-79
2023/03/16 08:35:54;;;;;;;;;;;;;;;;;;4437487;32;19937;-79
2023/03/16 08:38:19;;;;;;;;;;;;;;;;;;4439108;32;20278;-79
2023/03/16 08:40:47;;;;;;;;;;;;;;;;;;4437355;32;19948;-79
2023/03/16 08:43:13;;;;;;;;;;;;;;;;;;4438184;32;19937;-79
2023/03/16 08:45:38;;;;;;;;;;;;;;;;;;4436913;32;19992;-78
2023/03/16 08:48:03;;;;;;;;;;;;;;;;;;4436804;32;19945;-79
2023/03/16 08:50:29;;;;;;;;;;;;;;;;;;4436845;32;19997;-79
2023/03/16 08:52:54;;;;;;;;;;;;;;;;;;4436709;32;19947;-79
2023/03/16 08:55:19;;;;;;;;;;;;;;;;;;4438122;32;19947;-78
2023/03/16 08:57:45;;;;;;;;;;;;;;;;;;4438399;32;19970;-79
2023/03/16 09:00:13;;;;;;;;;;;;;;;;;;4439698;32;19968;-79
2023/03/16 09:05:23;;;;;;;;;;;;;;;;;;4438618;32;19932;-79
2023/03/16 09:07:48;;;;;;;;;;;;;;;;;;4436497;32;20313;-79
2023/03/16 09:10:14;;;;;;;;;;;;;;;;;;4437919;32;20260;-79
2023/03/16 09:12:40;;;;;;;;;;;;;;;;;;4436648;32;20058;-79
2023/03/16 09:15:05;;;;;;;;;;;;;;;;;;4439251;32;20261;-78
2023/03/16 09:17:30;;;;;;;;;;;;;;;;;;4439889;32;19968;-79
2023/03/16 09:19:56;;;;;;;;;;;;;;;;;;4444837;32;19971;-78
2023/03/16 09:22:21;;;;;;;;;;;;;;;;;;4448226;32;20317;-79
2023/03/16 09:24:47;;;;;;;;;;;;;;;;;;4448346;32;19952;-77
2023/03/16 09:27:12;;;;;;;;;;;;;;;;;;4446320;32;19952;-78
2023/03/16 09:29:37;;;;;;;;;;;;;;;;;;4441872;32;19941;-78
2023/03/16 09:32:04;;;;;;;;;;;;;;;;;;4436437;32;19992;-78
2023/03/16 09:34:29;;;;;;;;;;;;;;;;;;4436516;32;19966;-78
2023/03/16 09:36:55;;;;;;;;;;;;;;;;;;4435733;32;19944;-78
2023/03/16 09:39:21;;;;;;;;;;;;;;;;;;4436026;32;19972;-78
2023/03/16 09:41:47;;;;;;;;;;;;;;;;;;4436173;32;20359;-78
2023/03/16 09:44:12;;;;;;;;;;;;;;;;;;4437312;32;19940;-78
2023/03/16 09:46:37;;;;;;;;;;;;;;;;;;4439345;32;19937;-78
2023/03/16 09:49:02;;;;;;;;;;;;;;;;;;4437481;32;19933;-78
2023/03/16 09:51:27;;;;;;;;;;;;;;;;;;4436309;32;20328;-78
2023/03/16 09:53:53;;;;;;;;;;;;;;;;;;4435830;32;20367;-78
2023/03/16 09:56:18;;;;;;;;;;;;;;;;;;4435789;32;19933;-78
2023/03/16 09:58:44;;;;;;;;;;;;;;;;;;4435719;32;20246;-78
2023/03/16 10:01:10;;;;;;;;;;;;;;;;;;4425539;32;19984;-78
2023/03/16 10:03:36;;;;;;;;;;;;;;;;;;4423517;32;19940;-79
2023/03/16 10:06:01;;;;;;;;;;;;;;;;;;4422962;32;20364;-78
2023/03/16 10:08:26;;;;;;;;;;;;;;;;;;4427445;32;19947;-79
2023/03/16 10:10:51;;;;;;;;;;;;;;;;;;4432294;32;19933;-79
2023/03/16 10:13:16;;;;;;;;;;;;;;;;;;4429851;32;19932;-78
2023/03/16 10:15:42;;;;;;;;;;;;;;;;;;4423269;32;19940;-78
2023/03/16 10:18:08;;;;;;;;;;;;;;;;;;4422511;32;19967;-78
2023/03/16 10:20:33;;;;;;;;;;;;;;;;;;4436576;32;19937;-77
2023/03/16 10:23:00;;;;;;;;;;;;;;;;;;4437262;32;20340;-78
2023/03/16 10:25:25;;;;;;;;;;;;;;;;;;4437746;32;19977;-77
2023/03/16 10:27:52;;;;;;;;;;;;;;;;;;4436695;32;19997;-78
2023/03/16 10:30:18;;;;;;;;;;;;;;;;;;4435434;32;20298;-79
2023/03/16 10:32:43;;;;;;;;;;;;;;;;;;4435316;32;19996;-78
2023/03/16 10:35:08;;;;;;;;;;;;;;;;;;4435614;32;20325;-77
2023/03/16 10:37:33;;;;;;;;;;;;;;;;;;4435340;32;20363;-78
2023/03/16 10:39:59;;;;;;;;;;;;;;;;;;4435456;32;20304;-79
2023/03/16 10:42:25;;;;;;;;;;;;;;;;;;4435111;32;19944;-78
2023/03/16 10:44:52;;;;;;;;;;;;;;;;;;4436933;32;19956;-77
2023/03/16 10:47:17;;;;;;;;;;;;;;;;;;4437069;32;19940;-78
2023/03/16 10:49:46;;;;;;;;;;;;;;;;;;4436136;32;20408;-78
2023/03/16 10:52:11;;;;;;;;;;;;;;;;;;4435057;32;19929;-78
2023/03/16 10:54:37;;;;;;;;;;;;;;;;;;4438321;32;19973;-77
2023/03/16 10:57:03;;;;;;;;;;;;;;;;;;4439134;32;20016;-78
2023/03/16 10:59:30;;;;;;;;;;;;;;;;;;4435127;32;19929;-79
2023/03/16 11:01:56;;;;;;;;;;;;;;;;;;4435146;32;19976;-78
2023/03/16 11:04:21;;;;;;;;;;;;;;;;;;4436283;32;19941;-78
2023/03/16 11:06:46;;;;;;;;;;;;;;;;;;4434613;32;19929;-79
2023/03/16 11:09:11;;;;;;;;;;;;;;;;;;4434497;32;19941;-78
2023/03/16 11:11:37;;;;;;;;;;;;;;;;;;4434734;32;19993;-78
2023/03/16 11:14:03;;;;;;;;;;;;;;;;;;4434637;32;19952;-76
2023/03/16 11:16:29;;;;;;;;;;;;;;;;;;4434611;32;19932;-78
2023/03/16 11:18:54;;;;;;;;;;;;;;;;;;4434754;32;19940;-77
2023/03/16 11:21:19;;;;;;;;;;;;;;;;;;4434922;32;19940;-79
2023/03/16 11:23:44;;;;;;;;;;;;;;;;;;4434921;32;19933;-80
2023/03/16 11:26:09;;;;;;;;;;;;;;;;;;4434931;32;20045;-78
2023/03/16 11:28:35;;;;;;;;;;;;;;;;;;4434828;32;20329;-78
2023/03/16 11:31:00;;;;;;;;;;;;;;;;;;4436610;32;19990;-78
2023/03/16 11:33:26;;;;;;;;;;;;;;;;;;4439132;32;19950;-78
2023/03/16 11:35:51;;;;;;;;;;;;;;;;;;4441411;32;19947;-78
2023/03/16 11:38:17;;;;;;;;;;;;;;;;;;4438852;32;19998;-79
2023/03/16 11:40:42;;;;;;;;;;;;;;;;;;4436732;32;19957;-77
2023/03/16 11:43:07;;;;;;;;;;;;;;;;;;4435001;32;19974;-78
2023/03/16 11:48:06;;;;;;;;;;;;;;;;;;4437131;32;19933;-78
2023/03/16 11:50:31;;;;;;;;;;;;;;;;;;4434857;32;20290;-79
2023/03/16 11:52:56;;;;;;;;;;;;;;;;;;4435907;32;19933;-77
2023/03/16 11:55:23;;;;;;;;;;;;;;;;;;4435403;32;20257;-78
2023/03/16 11:57:48;;;;;;;;;;;;;;;;;;4436031;32;19933;-78
2023/03/16 12:00:13;;;;;;;;;;;;;;;;;;4436705;32;19944;-79
2023/03/16 12:02:39;;;;;;;;;;;;;;;;;;4436423;32;19936;-78
2023/03/16 12:05:05;;;;;;;;;;;;;;;;;;4439821;32;19973;-78
2023/03/16 12:07:30;;;;;;;;;;;;;;;;;;4436470;32;19968;-79
2023/03/16 12:09:57;;;;;;;;;;;;;;;;;;4438526;32;19959;-78
2023/03/16 12:12:22;;;;;;;;;;;;;;;;;;4440272;32;19978;-78
2023/03/16 12:14:48;;;;;;;;;;;;;;;;;;4440759;32;19937;-78
2023/03/16 12:17:14;;;;;;;;;;;;;;;;;;4439691;32;19940;-78
2023/03/16 12:19:39;;;;;;;;;;;;;;;;;;4438500;32;19941;-77
2023/03/16 12:22:04;;;;;;;;;;;;;;;;;;4439253;32;20314;-78
2023/03/16 12:24:30;;;;;;;;;;;;;;;;;;4438778;32;19972;-78
2023/03/16 12:26:56;;;;;;;;;;;;;;;;;;4439964;32;19956;-78
2023/03/16 12:29:21;;;;;;;;;;;;;;;;;;4438538;32;19940;-77
2023/03/16 12:31:46;;;;;;;;;;;;;;;;;;4438963;32;19952;-78
2023/03/16 12:34:12;;;;;;;;;;;;;;;;;;4437327;32;19988;-78
2023/03/16 12:36:37;;;;;;;;;;;;;;;;;;4437073;32;19960;-79
2023/03/16 12:39:04;;;;;;;;;;;;;;;;;;4438177;32;20314;-78
2023/03/16 12:41:29;;;;;;;;;;;;;;;;;;4437081;32;19943;-79
2023/03/16 12:43:56;;;;;;;;;;;;;;;;;;4436583;32;19944;-76
2023/03/16 12:46:21;;;;;;;;;;;;;;;;;;4438691;32;19947;-77
2023/03/16 12:48:46;;;;;;;;;;;;;;;;;;4436548;32;19933;-78
2023/03/16 12:51:12;;;;;;;;;;;;;;;;;;4438356;32;19948;-77
2023/03/16 12:53:37;;;;;;;;;;;;;;;;;;4437940;32;19936;-78
2023/03/16 12:56:02;;;;;;;;;;;;;;;;;;4437808;32;19971;-77
2023/03/16 12:58:27;;;;;;;;;;;;;;;;;;4437419;32;19947;-78
2023/03/16 13:00:54;;;;;;;;;;;;;;;;;;4422587;32;19971;-76
2023/03/16 13:03:19;;;;;;;;;;;;;;;;;;4423018;32;19964;-78
2023/03/16 13:05:44;;;;;;;;;;;;;;;;;;4429496;32;19937;-79
2023/03/16 13:08:09;;;;;;;;;;;;;;;;;;4436457;32;20365;-78
2023/03/16 13:10:36;;;;;;;;;;;;;;;;;;4437474;32;20302;-78
2023/03/16 13:13:01;;;;;;;;;;;;;;;;;;4437345;32;19941;-78
2023/03/16 13:15:27;;;;;;;;;;;;;;;;;;4438186;32;19970;-78
2023/03/16 13:17:52;;;;;;;;;;;;;;;;;;4438142;32;19971;-79
2023/03/16 13:20:20;;;;;;;;;;;;;;;;;;4437403;32;19980;-78
2023/03/16 13:22:46;;;;;;;;;;;;;;;;;;4436770;32;19940;-78
2023/03/16 13:25:11;;;;;;;;;;;;;;;;;;4437730;32;19971;-79
2023/03/16 13:27:36;;;;;;;;;;;;;;;;;;4422334;32;19944;-78
2023/03/16 13:30:02;;;;;;;;;;;;;;;;;;4435682;32;19950;-78
2023/03/16 13:35:20;;;;;;;;;;;;;;;;;;4438333;32;19955;-78
2023/03/16 13:37:46;;;;;;;;;;;;;;;;;;4437042;32;20331;-77
2023/03/16 13:40:11;;;;;;;;;;;;;;;;;;4438008;32;19945;-77
2023/03/16 13:42:37;;;;;;;;;;;;;;;;;;4439107;32;19929;-79
2023/03/16 13:45:02;;;;;;;;;;;;;;;;;;4443583;32;19932;-79
2023/03/16 13:47:27;;;;;;;;;;;;;;;;;;4441733;32;20344;-79
2023/03/16 13:49:53;;;;;;;;;;;;;;;;;;4438596;32;19941;-79
2023/03/16 13:52:18;;;;;;;;;;;;;;;;;;4439135;32;19933;-80
2023/03/16 13:54:43;;;;;;;;;;;;;;;;;;4443503;32;19937;-79
2023/03/16 13:57:08;;;;;;;;;;;;;;;;;;4438833;32;19937;-79
2023/03/16 13:59:33;;;;;;;;;;;;;;;;;;4438049;32;20290;-79
2023/03/16 14:01:59;;;;;;;;;;;;;;;;;;4435970;32;19929;-79
2023/03/16 14:04:24;;;;;;;;;;;;;;;;;;4435915;32;19971;-77
2023/03/16 14:06:49;;;;;;;;;;;;;;;;;;4437435;32;20343;-79
2023/03/16 14:09:14;;;;;;;;;;;;;;;;;;4441775;32;19970;-77
2023/03/16 14:11:41;;;;;;;;;;;;;;;;;;4442321;32;20268;-79
2023/03/16 14:14:06;;;;;;;;;;;;;;;;;;4435954;32;19932;-79
2023/03/16 14:16:31;;;;;;;;;;;;;;;;;;4437399;32;19973;-80
2023/03/16 14:18:56;;;;;;;;;;;;;;;;;;4438686;32;19977;-80
2023/03/16 14:21:21;;;;;;;;;;;;;;;;;;4435866;32;19971;-80
2023/03/16 14:23:46;;;;;;;;;;;;;;;;;;4437104;32;20273;-79
2023/03/16 14:26:12;;;;;;;;;;;;;;;;;;4437062;32;19977;-79
2023/03/16 14:28:37;;;;;;;;;;;;;;;;;;4435548;32;20019;-80
2023/03/16 14:31:02;;;;;;;;;;;;;;;;;;4435262;32;19971;-80
2023/03/16 14:33:28;;;;;;;;;;;;;;;;;;4435815;32;20361;-79
2023/03/16 14:35:53;;;;;;;;;;;;;;;;;;4436447;32;19979;-80
2023/03/16 14:38:19;;;;;;;;;;;;;;;;;;4438563;32;20303;-80
2023/03/16 14:40:44;;;;;;;;;;;;;;;;;;4438305;32;19951;-79
2023/03/16 14:43:10;;;;;;;;;;;;;;;;;;4438481;32;19991;-79
2023/03/16 14:45:36;;;;;;;;;;;;;;;;;;4439094;32;19944;-80
2023/03/16 14:48:01;;;;;;;;;;;;;;;;;;4439376;32;20231;-80
2023/03/16 14:50:26;;;;;;;;;;;;;;;;;;4437575;32;20000;-80
2023/03/16 14:52:51;;;;;;;;;;;;;;;;;;4438111;32;19928;-79
2023/03/16 14:55:17;;;;;;;;;;;;;;;;;;4439335;32;19999;-79
2023/03/16 14:57:44;;;;;;;;;;;;;;;;;;4443261;32;19964;-77
2023/03/16 15:00:10;;;;;;;;;;;;;;;;;;4443212;32;20039;-81
2023/03/16 15:02:36;;;;;;;;;;;;;;;;;;4441217;32;20282;-80
2023/03/16 15:05:01;;;;;;;;;;;;;;;;;;4439426;32;19936;-80
2023/03/16 15:07:27;;;;;;;;;;;;;;;;;;4423078;32;19963;-80
2023/03/16 15:09:52;;;;;;;;;;;;;;;;;;4422377;32;20308;-81
2023/03/16 15:12:18;;;;;;;;;;;;;;;;;;4436710;32;19941;-80
2023/03/16 15:17:27;;;;;;;;;;;;;;;;;;4437771;32;20315;-80
2023/03/16 15:19:52;;;;;;;;;;;;;;;;;;4436921;32;19952;-79
2023/03/16 15:22:17;;;;;;;;;;;;;;;;;;4436252;32;19936;-80
2023/03/16 15:24:42;;;;;;;;;;;;;;;;;;4439043;32;19952;-80
2023/03/16 15:27:07;;;;;;;;;;;;;;;;;;4436605;32;20295;-79
2023/03/16 15:29:33;;;;;;;;;;;;;;;;;;4437727;32;19980;-79
2023/03/16 15:31:58;;;;;;;;;;;;;;;;;;4438382;32;19974;-79
2023/03/16 15:34:23;;;;;;;;;;;;;;;;;;4439207;32;19941;-79
2023/03/16 15:36:48;;;;;;;;;;;;;;;;;;4438357;32;19937;-80
2023/03/16 15:39:13;;;;;;;;;;;;;;;;;;4437417;32;19980;-79
2023/03/16 15:41:38;;;;;;;;;;;;;;;;;;4438826;32;19941;-79
2023/03/16 15:44:04;;;;;;;;;;;;;;;;;;4438540;32;19951;-78
2023/03/16 15:46:29;;;;;;;;;;;;;;;;;;4448966;32;20117;-78
2023/03/16 15:48:54;;;;;;;;;;;;;;;;;;4452403;32;19954;-78
2023/03/16 15:51:20;;;;;;;;;;;;;;;;;;4452941;32;19974;-80
2023/03/16 15:53:45;;;;;;;;;;;;;;;;;;4452215;32;19959;-79
2023/03/16 15:56:10;;;;;;;;;;;;;;;;;;4449217;32;19983;-78
2023/03/16 15:58:36;;;;;;;;;;;;;;;;;;4451170;32;20270;-78
2023/03/16 16:01:02;;;;;;;;;;;;;;;;;;4448709;32;19990;-79
2023/03/16 16:03:27;;;;;;;;;;;;;;;;;;4444887;32;20222;-79
2023/03/16 16:05:52;;;;;;;;;;;;;;;;;;4448087;32;19937;-79
2023/03/16 16:08:17;;;;;;;;;;;;;;;;;;4446803;32;19941;-78
2023/03/16 16:10:42;;;;;;;;;;;;;;;;;;4445806;32;19952;-78
2023/03/16 16:13:07;;;;;;;;;;;;;;;;;;4446832;32;19948;-78
2023/03/16 16:15:32;;;;;;;;;;;;;;;;;;4448625;32;19933;-78
2023/03/16 16:17:58;;;;;;;;;;;;;;;;;;4445181;32;19933;-79
2023/03/16 16:20:23;;;;;;;;;;;;;;;;;;4440175;32;19963;-79
2023/03/16 16:22:48;;;;;;;;;;;;;;;;;;4437824;32;20317;-80
2023/03/16 16:25:13;;;;;;;;;;;;;;;;;;4438576;32;19937;-79
2023/03/16 16:27:38;;;;;;;;;;;;;;;;;;4438308;32;19966;-79
2023/03/16 16:30:03;;;;;;;;;;;;;;;;;;4437217;32;19976;-79
2023/03/16 16:32:29;;;;;;;;;;;;;;;;;;4438271;32;19932;-79
2023/03/16 16:34:55;;;;;;;;;;;;;;;;;;4437781;32;19940;-79
2023/03/16 16:37:20;;;;;;;;;;;;;;;;;;4428717;32;19995;-80
2023/03/16 16:39:45;;;;;;;;;;;;;;;;;;4421674;32;19952;-79
2023/03/16 16:42:11;;;;;;;;;;;;;;;;;;4421247;32;20020;-78
2023/03/16 16:44:36;;;;;;;;;;;;;;;;;;4422406;32;19944;-79
2023/03/16 16:47:02;;;;;;;;;;;;;;;;;;4423247;32;19985;-78
2023/03/16 16:49:29;;;;;;;;;;;;;;;;;;4424490;32;19933;-80
2023/03/16 16:51:54;;;;;;;;;;;;;;;;;;4424371;32;19940;-78
2023/03/16 16:54:19;;;;;;;;;;;;;;;;;;4423217;32;20282;-79
2023/03/16 16:56:45;;;;;;;;;;;;;;;;;;4430747;32;19952;-78
2023/03/16 16:59:10;;;;;;;;;;;;;;;;;;4436292;32;19972;-78
2023/03/16 17:01:35;;;;;;;;;;;;;;;;;;4438300;32;20225;-77
2023/03/16 17:04:01;;;;;;;;;;;;;;;;;;4437496;32;19955;-77